Latest Weather Observations for Mount Ginini

IDN60801

Issued at 7:33 pm EDT Wednesday 29 January 2020 (issued every 10 minutes, with the page automatically refreshed every 10 minutes)

About weather observations | Map of weather stations | Latest weather observations for NSW | Other Formats
Station Details ID: 070349 Name: MOUNT GININI AWS Lat: -35.53 Lon: 148.77 Height: 1760.0 m
Data from the previous 72 hours. | See also: Recent months at Mount Ginini
Date/Time
EDT
Temp
°C
App
Temp
°C
Dew
Point
°C
Rel
Hum
%
Delta-T
°C
Wind Press
QNH
hPa
Press
MSL
hPa
Rain since
9am
mm
Dir  Spd
km/h
Gust
km/h
Spd
kts
Gust
kts
29/07:30pm 19.1 17.3 9.3 53 5.6 NE 9 20 5 11 - - 0.0
29/07:00pm 21.4 19.1 7.3 40 7.9 NNE 9 17 5 9 - - 0.0
29/06:30pm 22.2 20.2 7.2 38 8.4 NE 7 15 4 8 - - 0.0
29/06:00pm 22.8 20.6 7.8 38 8.6 ENE 9 19 5 10 - - 0.0
29/05:30pm 23.6 21.4 7.7 36 9.1 ENE 9 20 5 11 - - 0.0
29/05:00pm 23.4 20.7 7.5 36 9.0 NE 11 20 6 11 - - 0.0
29/04:30pm 24.8 22.7 8.3 35 9.6 NE 9 20 5 11 - - 0.0
29/04:00pm 26.1 23.9 5.1 26 11.6 SW 6 15 3 8 - - 0.0
29/03:30pm 25.4 23.3 4.0 25 11.6 SSE 4 17 2 9 - - 0.0
29/03:00pm 25.2 22.2 4.3 26 11.4 SSE 9 19 5 10 - - 0.0
29/02:30pm 25.6 22.1 3.6 24 11.8 SW 11 26 6 14 - - 0.0
29/02:00pm 24.3 21.2 3.6 26 11.1 W 9 20 5 11 - - 0.0
29/01:30pm 23.7 21.3 5.1 30 10.2 W 7 20 4 11 - - 0.0
29/01:00pm 23.0 20.7 5.0 31 9.8 WSW 6 19 3 10 - - 0.0
29/12:30pm 22.8 20.7 6.6 35 9.0 W 7 15 4 8 - - 0.0
29/12:00pm 21.4 19.4 6.9 39 8.1 W 7 15 4 8 - - 0.0
29/11:30am 19.7 17.3 5.4 39 7.7 WSW 7 15 4 8 - - 0.0
29/11:00am 18.9 15.8 5.4 41 7.2 WSW 11 19 6 10 - - 0.0
29/10:30am 17.8 15.8 6.3 47 6.2 W 6 11 3 6 - - 0.0
29/10:00am 16.9 14.2 5.8 48 5.9 WSW 9 17 5 9 - - 0.0
29/09:30am 16.2 13.7 4.9 47 5.9 WSW 7 13 4 7 - - 0.0
29/09:00am 15.6 13.2 4.3 47 5.8 W 6 11 3 6 - - 0.0
29/08:30am 14.7 12.3 4.1 49 5.4 W 6 11 3 6 - - 0.0
29/08:00am 13.7 11.4 4.6 54 4.6 W 6 9 3 5 - - 0.0
29/07:30am 12.2 9.7 3.7 56 4.2 WNW 6 9 3 5 - - 0.0
29/07:00am 11.5 9.1 2.3 53 4.4 NNW 4 7 2 4 - - 0.0
29/06:30am 11.4 8.6 3.4 58 3.9 NNE 7 9 4 5 - - 0.0
29/06:00am 11.2 8.8 4.4 63 3.4 NNE 6 11 3 6 - - 0.0
29/05:30am 11.0 8.6 4.5 64 3.2 NNE 6 9 3 5 - - 0.0
29/05:00am 10.7 8.2 5.0 68 2.9 NNE 7 11 4 6 - - 0.0
29/04:30am 10.7 8.0 5.7 71 2.6 NE 9 11 5 6 - - 0.0
29/04:00am 10.6 8.8 9.5 93 0.6 NNE 9 13 5 7 - - 0.0
29/03:30am 10.7 9.1 10.2 97 0.3 NE 9 13 5 7 - - 0.0
29/03:00am 11.5 10.2 11.2 98 0.2 ENE 9 13 5 7 - - 0.0
29/02:30am 11.6 10.8 11.1 97 0.3 E 6 9 3 5 - - 0.0
29/02:00am 11.5 10.5 11.0 97 0.3 E 7 11 4 6 - - 0.0
29/01:30am 11.5 10.1 10.9 96 0.3 E 9 13 5 7 - - 0.0
29/01:00am 12.0 11.0 11.1 94 0.5 E 7 9 4 5 - - 0.0
29/12:30am 12.7 12.0 11.3 91 0.8 ESE 6 11 3 6 - - 0.0
29/12:00am 13.3 12.0 10.1 81 1.8 ESE 7 11 4 6 - - 0.0
 
Date/Time
EDT
Temp
°C
App
Temp
°C
Dew
Point
°C
Rel
Hum
%
Delta-T
°C
Wind Press
QNH
hPa
Press
MSL
hPa
Rain since
9am
mm
Dir  Spd
km/h
Gust
km/h
Spd
kts
Gust
kts
28/11:30pm 14.0 12.3 8.4 69 3.1 ESE 7 9 4 5 - - 0.0
28/11:00pm 14.6 12.8 7.2 61 4.0 E 6 11 3 6 - - 0.0
28/10:30pm 15.9 12.8 0.1 34 7.5 S 6 13 3 7 - - 0.0
28/10:00pm 16.3 12.2 0.0 33 7.7 SW 11 22 6 12 - - 0.0
28/09:30pm 16.3 12.2 0.0 33 7.7 WSW 11 19 6 10 - - 0.0
28/09:00pm 16.9 12.8 0.1 32 8.0 WSW 11 20 6 11 - - 0.0
28/08:30pm 17.2 13.9 -0.1 31 8.2 WSW 7 17 4 9 - - 0.0
28/08:00pm 18.0 14.4 0.6 31 8.4 W 9 19 5 10 - - 0.0
28/07:30pm 19.2 15.7 1.2 30 8.9 W 9 20 5 11 - - 0.0
28/07:00pm 20.6 17.2 2.0 29 9.4 W 9 22 5 12 - - 0.0
28/06:30pm 21.0 16.0 1.3 27 9.9 W 17 33 9 18 - - 0.0
28/06:00pm 21.5 17.6 1.2 26 10.2 W 11 26 6 14 - - 0.0
28/05:30pm 21.1 17.2 0.9 26 10.1 W 11 26 6 14 - - 0.0
28/05:00pm 22.7 17.8 1.7 25 10.7 W 17 33 9 18 - - 0.0
28/04:30pm 23.7 18.2 2.0 24 11.2 W 20 37 11 20 - - 0.0
28/04:00pm 23.2 17.7 2.1 25 10.9 W 20 39 11 21 - - 0.0
28/03:30pm 24.2 19.9 3.5 26 11.0 W 15 35 8 19 - - 0.0
28/03:00pm 22.9 18.7 3.9 29 10.1 W 15 32 8 17 - - 0.0
28/02:30pm 23.4 20.3 7.1 35 9.2 WNW 13 30 7 16 - - 0.0
28/02:00pm 23.2 20.2 7.7 37 8.8 WNW 13 28 7 15 - - 0.0
28/01:30pm 21.9 18.0 5.3 34 9.0 W 15 26 8 14 - - 0.0
28/01:00pm 20.2 16.8 5.8 39 7.8 W 13 28 7 15 - - 0.0
28/12:30pm 18.2 14.6 5.1 42 6.9 WNW 13 30 7 16 - - 0.0
28/12:00pm 17.9 15.2 7.3 50 5.8 W 11 22 6 12 - - 0.0
28/11:30am 16.9 13.6 6.4 50 5.7 WNW 13 24 7 13 - - 0.0
28/11:00am 16.9 13.4 5.5 47 6.0 W 13 26 7 14 - - 0.0
28/10:30am 17.1 13.7 5.7 47 6.1 WNW 13 26 7 14 - - 0.0
28/10:00am 16.7 13.5 6.8 52 5.4 WNW 13 24 7 13 - - 0.0
28/09:30am 16.4 13.4 7.9 57 4.7 W 13 24 7 13 - - 0.0
28/09:00am 15.8 12.5 6.3 53 5.1 W 13 26 7 14 - - 0.0
28/08:30am 15.4 11.9 5.6 52 5.2 W 13 22 7 12 - - 0.0
28/08:00am 14.9 11.4 5.4 53 5.0 WNW 13 26 7 14 - - 0.0
28/07:30am 14.1 11.4 7.2 63 3.7 WNW 11 22 6 12 - - 0.0
28/07:00am 13.5 12.2 12.4 93 0.7 WNW 11 22 6 12 - - 0.0
28/06:30am 13.4 11.8 11.6 89 1.0 WNW 11 19 6 10 - - 0.0
28/06:00am 13.4 12.2 11.5 88 1.1 WNW 9 20 5 11 - - 0.0
28/05:30am 13.7 11.6 9.7 77 2.3 WNW 11 20 6 11 - - 0.0
28/05:00am 14.2 11.7 8.2 67 3.3 NW 11 19 6 10 - - 0.0
28/04:30am 14.2 11.2 7.5 64 3.6 NW 13 22 7 12 - - 0.0
28/04:00am 14.4 11.0 7.7 64 3.6 NW 15 22 8 12 - - 0.0
28/03:30am 14.0 11.4 9.4 74 2.6 NNW 13 20 7 11 - - 0.0
28/03:00am 14.2 11.5 8.8 70 3.0 NNW 13 20 7 11 - - 0.0
28/02:30am 14.1 12.3 9.5 74 2.6 N 9 19 5 10 - - 0.0
28/02:00am 14.0 13.3 13.1 94 0.5 N 9 13 5 7 - - 0.0
28/01:30am 13.8 13.0 13.0 95 0.5 N 9 17 5 9 - - 0.0
28/01:00am 13.7 13.3 12.9 95 0.5 NNE 7 11 4 6 - - 0.0
28/12:30am 14.1 13.0 12.1 88 1.2 NNE 9 13 5 7 - - 0.0
28/12:00am 15.0 13.0 8.7 66 3.5 NNE 9 17 5 9 - - 0.0
 
Date/Time
EDT
Temp
°C
App
Temp
°C
Dew
Point
°C
Rel
Hum
%
Delta-T
°C
Wind Press
QNH
hPa
Press
MSL
hPa
Rain since
9am
mm
Dir  Spd
km/h
Gust
km/h
Spd
kts
Gust
kts
27/11:30pm 15.4 13.2 6.4 55 4.8 NNE 7 15 4 8 - - 0.0
27/11:00pm 16.8 14.3 4.5 44 6.4 NNE 7 19 4 10 - - 0.0
27/10:30pm 17.5 14.4 3.8 40 7.0 NW 9 15 5 8 - - 0.0
27/10:00pm 17.9 14.5 3.8 39 7.3 WNW 11 17 6 9 - - 0.0
27/09:30pm 18.1 14.2 3.6 38 7.5 WNW 13 24 7 13 - - 0.0
27/09:00pm 18.1 14.6 3.6 38 7.5 WNW 11 20 6 11 - - 0.0
27/08:30pm 18.4 14.4 3.1 36 7.8 WNW 13 20 7 11 - - 0.0
27/08:00pm 19.3 15.8 3.5 35 8.2 WNW 11 19 6 10 - - 0.0
27/07:30pm 20.8 17.8 4.0 33 8.9 WNW 9 20 5 11 - - 0.0
27/07:00pm 20.7 17.3 3.9 33 8.8 NW 11 20 6 11 - - 0.0
27/06:30pm 22.4 19.0 4.0 30 9.8 WNW 11 26 6 14 - - 0.0
27/06:00pm 24.0 20.7 4.4 28 10.6 WNW 11 26 6 14 - - 0.0
27/05:30pm 24.0 19.9 4.4 28 10.6 NW 15 26 8 14 - - 0.0
27/05:00pm 24.1 20.6 5.5 30 10.3 WNW 13 32 7 17 - - 0.0
27/04:30pm 24.7 21.2 5.5 29 10.6 WNW 13 28 7 15 - - 0.0
27/04:00pm 25.4 21.8 6.6 30 10.6 WNW 15 37 8 20 - - 0.0
27/03:30pm 25.3 21.8 7.0 31 10.4 WNW 15 28 8 15 - - 0.0
27/03:00pm 25.0 21.3 6.2 30 10.5 NW 15 30 8 16 - - 0.0
27/02:30pm 24.4 20.6 3.7 26 11.1 WSW 13 28 7 15 - - 0.0
27/02:00pm 24.6 20.6 4.9 28 10.8 WNW 15 37 8 20 - - 0.0
27/01:30pm 23.1 18.4 3.1 27 10.5 W 17 35 9 19 - - 0.0
27/01:00pm 23.6 19.3 3.5 27 10.7 WNW 15 33 8 18 - - 0.0
27/12:30pm 22.0 17.7 5.4 34 9.0 WNW 17 33 9 18 - - 0.0
27/12:00pm 21.6 17.9 6.3 37 8.4 WNW 15 32 8 17 - - 0.0
27/11:30am 20.7 16.9 7.7 43 7.3 WNW 17 30 9 16 - - 0.0
27/11:00am 19.8 17.4 8.8 49 6.3 WNW 11 26 6 14 - - 0.0
27/10:30am 19.2 16.6 9.4 53 5.6 NW 13 26 7 14 - - 0.0
27/10:00am 18.0 14.7 8.0 52 5.6 NW 15 24 8 13 - - 0.0
27/09:30am 17.1 14.2 8.3 56 4.9 NW 13 24 7 13 - - 0.0
27/09:00am 16.7 13.9 8.4 58 4.6 NW 13 22 7 12 - - 0.0
27/08:30am 16.2 12.9 6.6 53 5.2 NW 13 24 7 13 - - 0.0
27/08:00am 15.3 12.0 6.3 55 4.8 NW 13 22 7 12 - - 0.0
27/07:30am 13.4 10.4 9.1 75 2.4 NNW 15 24 8 13 - - 0.0
27/07:00am 11.2 9.0 10.7 97 0.3 N 13 24 7 13 - - 0.0
27/06:30am 11.2 9.0 10.7 97 0.3 N 13 30 7 16 - - 0.0
27/06:00am 11.3 9.1 10.8 97 0.3 N 13 22 7 12 - - 0.0
27/05:30am 11.6 9.5 11.0 96 0.3 N 13 22 7 12 - - 0.0
27/05:00am 11.8 9.7 11.0 95 0.5 N 13 22 7 12 - - 0.0
27/04:30am 11.9 9.8 11.3 96 0.3 N 13 22 7 12 - - 0.0
27/04:00am 12.1 10.1 11.6 97 0.3 NNE 13 22 7 12 - - 0.0
27/03:30am 11.9 10.3 11.4 97 0.3 NNE 11 20 6 11 - - 0.0
27/03:00am 12.3 10.7 11.7 96 0.3 NE 11 19 6 10 - - 0.0
27/02:30am 12.6 10.3 11.7 94 0.5 NE 15 20 8 11 - - 0.0
27/02:00am 12.3 10.3 11.4 94 0.5 ENE 13 22 7 12 - - 0.0
27/01:30am 12.2 10.2 11.4 95 0.5 ENE 13 22 7 12 - - 0.0
27/01:00am 12.9 11.2 12.4 97 0.3 E 13 20 7 11 - - 0.0
27/12:30am 13.4 11.8 12.9 97 0.3 ENE 13 19 7 10 - - 0.0
27/12:00am 13.4 12.5 12.6 95 0.5 ENE 9 17 5 9 - - 0.0
 
Date/Time
EDT
Temp
°C
App
Temp
°C
Dew
Point
°C
Rel
Hum
%
Delta-T
°C
Wind Press
QNH
hPa
Press
MSL
hPa
Rain since
9am
mm
Dir  Spd
km/h
Gust
km/h
Spd
kts
Gust
kts
26/11:30pm 14.1 12.6 12.0 87 1.2 E 11 17 6 9 - - 0.0
26/11:00pm 14.7 12.8 8.9 68 3.2 NE 9 13 5 7 - - 0.0
26/10:30pm 15.9 13.1 3.0 42 6.5 ENE 7 19 4 10 - - 0.0
26/10:00pm 17.0 13.7 -0.2 31 8.1 SW 7 11 4 6 - - 0.0
26/09:30pm 16.8 13.0 -0.9 30 8.3 WSW 9 13 5 7 - - 0.0
26/09:00pm 17.5 13.4 -0.2 30 8.4 W 11 20 6 11 - - 0.0
26/08:30pm 17.5 13.5 0.2 31 8.3 WNW 11 19 6 10 - - 0.0
26/08:00pm 18.6 14.6 0.7 30 8.7 WNW 11 19 6 10 - - 0.0

Other formats

Comma delimited format used in spreadsheet applications
http://www.bom.gov.au/fwo/IDN60801/IDN60801.95925.axf

JavaScript Object Notation format (JSON) in row-major order
http://www.bom.gov.au/fwo/IDN60801/IDN60801.95925.json

Data quality

Most of these data are generated automatically and are frequently updated. Quality checks on data are not normally performed. It is possible for incorrect values to appear. Refer to information at About Latest Weather Observations and please check the disclaimer before using these data.